Time;durP1;ratioP1;P1;durP2;ratioP2;P2;SDS_P1;SDS_P2;PMS_P1;PMS_P2;Temp;Humidity;BMP_temperature;BMP_pressure;BME280_temperature;BME280_humidity;BME280_pressure;Samples;Min_cycle;Max_cycle;Signal;HPM_P1;HPM_P2
2023/12/22 00:00:17;;;;;;;11.90;2.55;;;;;;;3.56;100.00;96430.84;6088043;19;20493;-71
2023/12/22 00:02:17;;;;;;;12.30;3.10;;;;;;;3.48;100.00;96423.78;6087650;19;20010;-71
2023/12/22 00:04:18;;;;;;;12.07;2.50;;;;;;;3.45;100.00;96428.03;6088832;19;20258;-71
2023/12/22 00:06:18;;;;;;;16.67;3.60;;;;;;;3.54;100.00;96449.56;6087865;19;20008;-71
2023/12/22 00:08:18;;;;;;;13.23;2.50;;;;;;;3.56;100.00;96420.69;6088767;19;20061;-71
2023/12/22 00:10:19;;;;;;;16.60;4.05;;;;;;;3.54;100.00;96419.50;6089462;19;20011;-71
2023/12/22 00:12:19;;;;;;;15.38;3.25;;;;;;;3.49;100.00;96415.19;6086050;19;20350;-71
2023/12/22 00:14:19;;;;;;;12.80;2.47;;;;;;;3.46;100.00;96426.88;6087989;19;20347;-71
2023/12/22 00:16:19;;;;;;;15.73;2.90;;;;;;;3.42;100.00;96419.81;6088327;19;20007;-71
2023/12/22 00:18:20;;;;;;;13.27;2.95;;;;;;;3.37;100.00;96432.66;6087699;19;20009;-71
2023/12/22 00:20:26;;;;;;;9.23;2.60;;;;;;;3.47;100.00;96430.38;6088658;19;20925;-71
2023/12/22 00:22:26;;;;;;;19.17;2.83;;;;;;;3.44;100.00;96422.94;6088869;19;20077;-71
2023/12/22 00:24:26;;;;;;;10.13;2.30;;;;;;;3.44;100.00;96425.69;6087460;19;20007;-71
2023/12/22 00:26:27;;;;;;;16.20;3.50;;;;;;;3.45;100.00;96441.69;6087486;19;20007;-71
2023/12/22 00:28:27;;;;;;;10.45;2.40;;;;;;;3.45;100.00;96436.22;6085848;19;20018;-71
2023/12/22 00:30:27;;;;;;;8.00;2.05;;;;;;;3.47;100.00;96430.38;6086998;19;20010;-71
2023/12/22 00:32:28;;;;;;;13.75;3.58;;;;;;;3.45;100.00;96432.72;6089142;19;20025;-71
2023/12/22 00:34:28;;;;;;;17.42;2.97;;;;;;;3.53;100.00;96431.59;6087231;19;20402;-71
2023/12/22 00:36:28;;;;;;;9.30;2.95;;;;;;;3.62;100.00;96419.16;6088195;19;20002;-71
2023/12/22 00:38:28;;;;;;;15.48;3.20;;;;;;;3.68;100.00;96430.53;6088543;19;20294;-71
2023/12/22 00:40:29;;;;;;;16.00;2.80;;;;;;;3.67;100.00;96426.22;6087384;19;19999;-71
2023/12/22 00:42:29;;;;;;;11.43;2.78;;;;;;;3.64;100.00;96430.50;6088049;19;20009;-71
2023/12/22 00:44:30;;;;;;;9.40;2.78;;;;;;;3.62;100.00;96416.41;6088677;19;20502;-71
2023/12/22 00:46:30;;;;;;;16.77;2.85;;;;;;;3.61;100.00;96423.06;6088696;19;20002;-71
2023/12/22 00:48:30;;;;;;;12.02;2.60;;;;;;;3.58;100.00;96429.31;6087330;19;20585;-71
2023/12/22 00:50:30;;;;;;;18.48;3.20;;;;;;;3.59;100.00;96424.59;6098035;19;20007;-71
2023/12/22 00:52:31;;;;;;;8.98;2.75;;;;;;;3.60;100.00;96417.97;6102820;19;20010;-71
2023/12/22 00:54:32;;;;;;;9.90;2.47;;;;;;;3.59;100.00;96417.19;6102449;19;20018;-71
2023/12/22 00:56:32;;;;;;;13.32;2.70;;;;;;;3.72;100.00;96436.78;6101618;19;20010;-71
2023/12/22 00:58:32;;;;;;;8.95;2.72;;;;;;;3.75;100.00;96427.03;6100206;19;20014;-71
2023/12/22 01:00:32;;;;;;;10.25;2.42;;;;;;;3.74;100.00;96420.78;6100733;19;20451;-71
2023/12/22 01:02:33;;;;;;;9.18;2.70;;;;;;;3.60;100.00;96421.50;6102152;19;20020;-71
2023/12/22 01:04:33;;;;;;;14.65;3.08;;;;;;;3.57;100.00;96419.53;6103442;19;20742;-71
2023/12/22 01:06:37;;;;;;;13.18;2.85;;;;;;;3.53;100.00;96409.72;6101339;19;20002;-71
2023/12/22 01:08:38;;;;;;;12.93;2.45;;;;;;;3.47;100.00;96413.97;6100729;19;20006;-71
2023/12/22 01:10:38;;;;;;;10.65;2.83;;;;;;;3.41;100.00;96426.47;6100874;19;20174;-71
2023/12/22 01:12:39;;;;;;;13.50;2.60;;;;;;;3.39;100.00;96424.09;6101153;19;20015;-71
2023/12/22 01:14:39;;;;;;;12.02;1.95;;;;;;;3.40;100.00;96425.69;6101267;19;20003;-71
2023/12/22 01:16:39;;;;;;;13.02;2.60;;;;;;;3.37;100.00;96429.94;6100232;19;20355;-71
2023/12/22 01:18:42;;;;;;;6.93;2.72;;;;;;;3.38;100.00;96442.44;6102075;19;20333;-71
2023/12/22 01:20:42;;;;;;;;;;;;;;;3.49;100.00;96445.25;6102038;19;20007;-71
2023/12/22 01:22:42;;;;;;;11.50;2.15;;;;;;;3.56;100.00;96447.25;6101479;19;19923;-71
2023/12/22 01:24:45;;;;;;;8.68;2.22;;;;;;;3.59;100.00;96458.22;6100263;19;20014;-71
2023/12/22 01:26:45;;;;;;;8.82;2.97;;;;;;;3.66;100.00;96455.53;6102019;19;20014;-71
2023/12/22 01:28:45;;;;;;;8.90;2.63;;;;;;;3.66;100.00;96446.53;6100301;19;20002;-71
2023/12/22 01:30:46;;;;;;;13.27;2.15;;;;;;;3.60;100.00;96457.03;6099828;19;20101;-71
2023/12/22 01:32:46;;;;;;;6.13;1.73;;;;;;;3.59;100.00;96460.16;6100696;19;20015;-71
2023/12/22 01:34:46;;;;;;;5.93;1.95;;;;;;;3.52;100.00;96468.31;6099632;19;20480;-71
2023/12/22 01:36:47;;;;;;;9.40;1.85;;;;;;;3.49;100.00;96458.16;6100773;19;20416;-71
2023/12/22 01:38:47;;;;;;;10.40;2.17;;;;;;;3.48;100.00;96459.31;6100848;19;20010;-71
2023/12/22 01:40:48;;;;;;;8.48;1.67;;;;;;;3.50;100.00;96457.75;6101087;19;20003;-71
2023/12/22 01:42:48;;;;;;;9.77;2.25;;;;;;;3.44;100.00;96453.03;6100746;19;20010;-71
2023/12/22 01:44:48;;;;;;;6.82;2.85;;;;;;;3.45;100.00;96443.66;6100663;19;20022;-71
2023/12/22 01:46:50;;;;;;;5.97;1.90;;;;;;;3.50;100.00;96446.03;6100482;19;20023;-71
2023/12/22 01:48:50;;;;;;;9.93;2.83;;;;;;;3.48;100.00;96440.97;6100631;19;20318;-71
2023/12/22 01:50:53;;;;;;;10.55;1.80;;;;;;;3.42;100.00;96441.69;6099219;19;20020;-71
2023/12/22 01:52:53;;;;;;;;;;;;;;;3.43;100.00;96451.47;6101448;19;20444;-71
2023/12/22 01:54:55;;;;;;;8.55;1.80;;;;;;;3.36;100.00;96458.44;6101403;19;20143;-71
2023/12/22 01:56:55;;;;;;;6.32;1.65;;;;;;;3.41;100.00;96462.00;6099700;19;20343;-71
2023/12/22 01:59:00;;;;;;;7.65;2.85;;;;;;;3.40;100.00;96442.06;6100678;19;20352;-71
2023/12/22 02:01:01;;;;;;;8.93;2.10;;;;;;;3.44;100.00;96448.34;6098124;19;20066;-71
2023/12/22 02:03:02;;;;;;;4.30;1.88;;;;;;;3.43;100.00;96438.56;6100400;19;20017;-71
2023/12/22 02:05:03;;;;;;;14.00;1.83;;;;;;;3.47;100.00;96441.31;6097446;19;20011;-71
2023/12/22 02:07:03;;;;;;;6.72;1.92;;;;;;;3.51;100.00;96431.19;6099507;19;20010;-71
2023/12/22 02:09:06;;;;;;;8.25;1.80;;;;;;;3.48;100.00;96443.69;6099520;19;20006;-71
2023/12/22 02:11:07;;;;;;;11.27;2.47;;;;;;;3.41;100.00;96438.19;6111691;19;20801;-71
2023/12/22 02:13:09;;;;;;;11.90;2.42;;;;;;;3.38;100.00;96434.22;6111206;19;20459;-71
2023/12/22 02:15:09;;;;;;;7.80;1.88;;;;;;;3.44;100.00;96425.69;6111317;19;20126;-71
2023/12/22 02:17:43;;;;;;;10.15;2.30;;;;;;;3.38;100.00;96426.03;6111885;19;20087;-71
2023/12/22 02:19:45;;;;;;;4.95;1.70;;;;;;;3.41;100.00;96431.94;6111130;19;20014;-71
2023/12/22 02:22:15;;;;;;;19.02;3.75;;;;;;;3.45;100.00;96416.31;6110784;19;20445;-71
2023/12/22 02:24:15;;;;;;;16.50;2.60;;;;;;;3.47;100.00;96416.72;6007142;19;2006534;-71
2023/12/22 02:26:33;;;;;;;9.75;1.85;;;;;;;3.52;100.00;96416.38;6111895;19;20265;-71
2023/12/22 02:28:35;;;;;;;8.70;2.28;;;;;;;3.46;100.00;96426.88;6111095;19;20010;-72
2023/12/22 02:30:49;;;;;;;10.03;2.50;;;;;;;3.50;100.00;96422.22;6111586;19;20490;-71
2023/12/22 02:32:52;;;;;;;8.65;2.72;;;;;;;3.51;100.00;96420.28;6111215;19;20006;-71
2023/12/22 02:34:54;;;;;;;9.13;1.70;;;;;;;3.52;100.00;96430.81;6111795;19;20730;-71
2023/12/22 02:36:55;;;;;;;9.07;1.88;;;;;;;3.54;100.00;96436.69;6110425;19;20003;-71
2023/12/22 02:38:57;;;;;;;8.88;2.92;;;;;;;3.57;100.00;96446.88;6112389;19;20017;-71
2023/12/22 02:40:58;;;;;;;10.23;2.85;;;;;;;3.60;100.00;96442.59;6110925;19;20411;-71
2023/12/22 02:43:00;;;;;;;13.95;3.20;;;;;;;3.60;100.00;96437.91;6110805;19;20328;-71
2023/12/22 02:45:00;;;;;;;9.63;1.83;;;;;;;3.66;100.00;96427.38;6111781;19;20031;-71
2023/12/22 02:47:01;;;;;;;6.43;2.20;;;;;;;3.67;100.00;96431.69;6111486;19;20970;-71
2023/12/22 02:49:01;;;;;;;9.90;2.08;;;;;;;3.71;100.00;96434.44;6110690;19;20007;-71
2023/12/22 02:51:02;;;;;;;3.75;1.40;;;;;;;3.77;100.00;96421.97;6109886;19;20006;-71
2023/12/22 02:53:02;;;;;;;7.28;2.03;;;;;;;3.77;100.00;96420.00;6111235;19;20022;-71
2023/12/22 02:55:03;;;;;;;6.90;1.75;;;;;;;3.70;100.00;96414.50;6111292;19;20021;-71
2023/12/22 02:57:04;;;;;;;9.27;2.05;;;;;;;3.76;100.00;96417.66;6110095;19;20375;-71
2023/12/22 02:59:04;;;;;;;8.02;1.90;;;;;;;3.77;100.00;96433.69;6110095;19;20078;-71
2023/12/22 03:01:04;;;;;;;4.82;1.60;;;;;;;3.76;100.00;96412.19;6110871;19;20316;-71
2023/12/22 03:03:05;;;;;;;7.43;1.63;;;;;;;3.77;100.00;96430.19;6110424;19;20363;-71
2023/12/22 03:05:05;;;;;;;5.45;1.70;;;;;;;3.80;100.00;96449.31;6110518;19;20357;-71
2023/12/22 03:07:06;;;;;;;13.57;2.10;;;;;;;3.87;100.00;96473.22;6112091;19;20007;-71
2023/12/22 03:09:06;;;;;;;7.75;2.17;;;;;;;3.89;100.00;96441.59;6110265;19;20002;-71
2023/12/22 03:11:06;;;;;;;8.77;1.60;;;;;;;3.87;100.00;96435.69;6109263;19;20002;-71
2023/12/22 03:13:07;;;;;;;5.13;1.83;;;;;;;3.89;100.00;96449.78;6110726;19;19999;-71
2023/12/22 03:15:08;;;;;;;9.23;2.40;;;;;;;3.91;100.00;96436.50;6110453;19;20034;-71
2023/12/22 03:17:09;;;;;;;6.45;1.73;;;;;;;3.89;100.00;96429.84;6110289;19;20496;-71
2023/12/22 03:19:10;;;;;;;6.22;1.90;;;;;;;3.86;100.00;96447.81;6110968;19;20007;-71
2023/12/22 03:21:18;;;;;;;6.95;1.60;;;;;;;3.88;100.00;96440.00;6105522;19;20103;-71
2023/12/22 03:23:18;;;;;;;8.32;1.80;;;;;;;3.85;100.00;96446.25;6104386;19;20023;-71
2023/12/22 03:25:19;;;;;;;9.30;2.30;;;;;;;3.77;100.00;96441.13;6103114;19;20002;-71
2023/12/22 03:27:20;;;;;;;5.28;1.60;;;;;;;3.82;100.00;96443.50;6103471;19;20348;-71
2023/12/22 03:29:20;;;;;;;6.30;2.00;;;;;;;3.81;100.00;96452.88;6103768;19;20011;-71
2023/12/22 03:31:21;;;;;;;6.25;1.95;;;;;;;3.74;100.00;96483.69;6103443;19;20034;-71
2023/12/22 03:33:21;;;;;;;3.65;1.48;;;;;;;3.43;100.00;96479.56;6104149;19;20487;-71
2023/12/22 03:35:21;;;;;;;8.18;1.98;;;;;;;2.96;100.00;96502.22;6103456;19;19999;-71
2023/12/22 03:37:21;;;;;;;2.97;1.77;;;;;;;2.46;100.00;96490.78;6103905;19;20344;-71
2023/12/22 03:39:22;;;;;;;5.88;1.05;;;;;;;2.37;100.00;96509.38;6104056;19;20058;-71
2023/12/22 03:41:22;;;;;;;7.53;1.75;;;;;;;2.19;100.00;96488.13;6103190;19;20301;-71
2023/12/22 03:43:22;;;;;;;9.95;1.58;;;;;;;2.08;100.00;96470.88;6103873;19;20300;-71
2023/12/22 03:45:23;;;;;;;3.90;1.60;;;;;;;2.05;100.00;96477.03;6103151;19;20386;-71
2023/12/22 03:47:23;;;;;;;6.28;1.70;;;;;;;2.07;100.00;96482.13;6103468;19;20332;-71
2023/12/22 03:49:23;;;;;;;5.85;1.55;;;;;;;2.07;100.00;96496.56;6093026;19;20604;-71
2023/12/22 03:51:23;;;;;;;4.72;1.65;;;;;;;2.11;100.00;96499.34;6102720;19;20010;-71
2023/12/22 03:53:24;;;;;;;9.38;2.65;;;;;;;2.15;100.00;96492.78;6103019;19;20028;-71
2023/12/22 03:55:24;;;;;;;8.73;1.30;;;;;;;2.15;100.00;96502.88;6103476;19;20357;-71
2023/12/22 03:57:24;;;;;;;11.00;2.33;;;;;;;2.15;100.00;96500.97;6101883;19;20552;-71
2023/12/22 03:59:25;;;;;;;9.38;1.65;;;;;;;2.11;100.00;96505.56;6101765;19;20018;-71
2023/12/22 04:01:25;;;;;;;12.63;1.95;;;;;;;2.12;100.00;96520.00;6102098;19;20445;-71
2023/12/22 04:03:26;;;;;;;5.57;1.70;;;;;;;2.11;100.00;96519.22;6104218;19;20044;-71
2023/12/22 04:05:26;;;;;;;5.38;1.70;;;;;;;2.01;100.00;96511.69;6102945;19;20374;-71
2023/12/22 04:07:26;;;;;;;4.40;1.80;;;;;;;2.02;100.00;96518.72;6103664;19;20018;-71
2023/12/22 04:09:27;;;;;;;9.95;1.65;;;;;;;2.07;100.00;96515.66;6102342;19;20011;-71
2023/12/22 04:11:27;;;;;;;5.00;1.55;;;;;;;2.05;100.00;96530.81;6101615;19;20010;-71
2023/12/22 04:13:27;;;;;;;5.60;1.60;;;;;;;2.01;100.00;96519.88;6102326;19;20563;-71
2023/12/22 04:15:28;;;;;;;10.32;1.90;;;;;;;2.02;100.00;96539.75;6103867;19;20558;-71
2023/12/22 04:17:28;;;;;;;12.80;1.85;;;;;;;2.02;100.00;96545.19;6098316;19;20010;-71
2023/12/22 04:19:28;;;;;;;6.93;1.90;;;;;;;1.80;100.00;96550.34;6100313;19;20063;-71
2023/12/22 04:21:29;;;;;;;3.65;1.48;;;;;;;1.68;100.00;96561.47;6101739;19;20010;-71
2023/12/22 04:23:29;;;;;;;2.10;1.30;;;;;;;1.45;100.00;96544.34;6103400;19;20339;-71
2023/12/22 04:25:29;;;;;;;7.10;2.70;;;;;;;1.32;100.00;96539.09;6101676;19;20371;-71
2023/12/22 04:27:29;;;;;;;6.07;1.33;;;;;;;1.30;100.00;96530.50;6101820;19;20089;-70
2023/12/22 04:29:30;;;;;;;5.40;1.52;;;;;;;1.24;100.00;96542.88;6101117;19;20751;-70
2023/12/22 04:31:30;;;;;;;3.80;1.15;;;;;;;1.29;100.00;96536.31;6099704;19;20228;-71
2023/12/22 04:33:30;;;;;;;4.28;1.08;;;;;;;1.32;100.00;96546.47;6099892;19;20006;-71
2023/12/22 04:35:31;;;;;;;6.15;1.45;;;;;;;1.32;100.00;96536.38;6101452;19;20435;-71
2023/12/22 04:37:31;;;;;;;8.65;1.40;;;;;;;1.38;100.00;96539.56;6098020;19;20006;-71
2023/12/22 04:39:31;;;;;;;4.75;1.45;;;;;;;1.37;100.00;96535.28;6095419;19;20544;-71
2023/12/22 04:41:31;;;;;;;3.08;1.00;;;;;;;1.46;100.00;96560.34;6099689;19;20014;-71
2023/12/22 04:43:32;;;;;;;3.47;1.15;;;;;;;1.45;100.00;96555.25;6098149;19;20038;-71
2023/12/22 04:45:32;;;;;;;2.95;1.10;;;;;;;1.48;100.00;96555.31;6096406;19;20103;-71
2023/12/22 04:47:32;;;;;;;3.92;1.75;;;;;;;1.39;100.00;96514.69;6102638;19;20021;-71
2023/12/22 04:49:32;;;;;;;7.60;1.38;;;;;;;1.37;100.00;96538.78;6095162;19;20031;-71
2023/12/22 04:51:33;;;;;;;6.18;1.70;;;;;;;1.36;100.00;96536.44;6085138;19;20025;-71
2023/12/22 04:53:33;;;;;;;4.05;1.20;;;;;;;1.35;100.00;96546.56;6088206;19;20291;-71
2023/12/22 04:55:33;;;;;;;2.78;1.02;;;;;;;1.43;100.00;96549.41;6086488;19;20001;-70
2023/12/22 04:57:34;;;;;;;9.40;1.60;;;;;;;1.42;100.00;96543.16;6088006;19;19995;-71
2023/12/22 04:59:34;;;;;;;2.75;0.90;;;;;;;1.45;100.00;96566.94;6085509;19;20451;-71
2023/12/22 05:01:35;;;;;;;5.22;1.50;;;;;;;1.55;100.00;96569.03;6086342;19;20374;-71
2023/12/22 05:03:35;;;;;;;7.97;1.23;;;;;;;1.51;100.00;96561.97;6087480;19;20009;-71
2023/12/22 05:05:35;;;;;;;8.55;1.60;;;;;;;1.49;100.00;96554.19;6086439;19;20070;-71
2023/12/22 05:07:36;;;;;;;5.15;1.73;;;;;;;1.46;100.00;96541.25;6084202;19;20769;-71
2023/12/22 05:09:36;;;;;;;5.00;1.23;;;;;;;1.46;100.00;96530.34;6085569;19;20439;-72
2023/12/22 05:11:37;;;;;;;6.45;1.70;;;;;;;1.48;100.00;96521.81;6085660;19;20008;-71
2023/12/22 05:13:37;;;;;;;4.10;1.38;;;;;;;1.42;100.00;96512.41;6086741;19;20382;-71
2023/12/22 05:15:38;;;;;;;7.00;1.67;;;;;;;1.40;100.00;96512.75;6086375;19;20705;-71
2023/12/22 05:17:40;;;;;;;9.48;1.70;;;;;;;1.39;100.00;96503.00;6086642;19;19999;-71
2023/12/22 05:19:40;;;;;;;6.35;1.65;;;;;;;1.37;100.00;96506.09;6086255;19;20021;-71
2023/12/22 05:21:41;;;;;;;5.57;2.40;;;;;;;1.35;100.00;96494.00;6085522;19;20494;-71
2023/12/22 05:23:41;;;;;;;14.30;6.50;;;;;;;1.34;100.00;96489.69;6086018;19;20030;-71
2023/12/22 05:25:41;;;;;;;9.30;3.85;;;;;;;1.38;100.00;96479.63;6086444;19;20010;-71
2023/12/22 05:27:43;;;;;;;11.27;3.13;;;;;;;1.45;100.00;96484.41;6086527;19;20010;-71
2023/12/22 05:29:43;;;;;;;4.45;1.67;;;;;;;1.61;100.00;96526.69;6084935;19;20506;-71
2023/12/22 05:31:43;;;;;;;4.93;1.85;;;;;;;1.75;100.00;96517.16;6084019;19;20006;-71
2023/12/22 05:33:44;;;;;;;6.60;1.85;;;;;;;1.79;100.00;96526.19;6084880;19;20003;-71
2023/12/22 05:35:44;;;;;;;8.93;1.55;;;;;;;1.72;100.00;96535.03;6084735;19;20006;-71
2023/12/22 05:37:44;;;;;;;9.20;1.42;;;;;;;1.59;100.00;96536.41;6084924;19;20542;-71
2023/12/22 05:39:45;;;;;;;5.10;1.40;;;;;;;1.63;100.00;96508.03;6085002;19;19994;-71
2023/12/22 05:41:45;;;;;;;7.60;1.45;;;;;;;1.50;100.00;96492.28;6081601;19;20010;-71
2023/12/22 05:43:45;;;;;;;8.38;2.00;;;;;;;1.41;100.00;96484.38;6082783;19;20009;-71
2023/12/22 05:45:46;;;;;;;4.00;1.30;;;;;;;1.41;100.00;96468.00;6082352;19;20009;-71
2023/12/22 05:47:46;;;;;;;9.93;1.83;;;;;;;1.48;100.00;96456.41;6082671;19;20371;-71
2023/12/22 05:49:47;;;;;;;4.22;1.65;;;;;;;1.45;100.00;96459.88;6083892;19;20530;-71
2023/12/22 05:51:47;;;;;;;7.40;1.85;;;;;;;1.44;100.00;96467.28;6099188;19;20066;-71
2023/12/22 05:53:47;;;;;;;13.70;1.73;;;;;;;1.52;100.00;96482.56;6099018;19;20006;-71
2023/12/22 05:55:48;;;;;;;5.97;1.60;;;;;;;1.49;100.00;96485.22;6096236;19;20289;-71
2023/12/22 05:57:49;;;;;;;8.00;1.77;;;;;;;1.55;100.00;96490.00;6095471;19;19998;-71
2023/12/22 05:59:49;;;;;;;8.35;1.83;;;;;;;1.59;100.00;96487.34;6096636;19;20006;-71
2023/12/22 06:01:53;;;;;;;12.50;2.47;;;;;;;1.63;100.00;96472.59;6098865;19;20063;-71
2023/12/22 06:03:54;;;;;;;8.65;2.25;;;;;;;1.68;100.00;96474.22;6096135;19;20007;-71
2023/12/22 06:05:55;;;;;;;8.57;1.83;;;;;;;1.74;100.00;96478.22;6098403;19;20021;-71
2023/12/22 06:07:55;;;;;;;6.43;1.70;;;;;;;1.80;100.00;96470.47;6094980;19;20082;-71
2023/12/22 06:09:55;;;;;;;6.95;2.25;;;;;;;1.83;100.00;96478.72;6098879;19;20352;-71
2023/12/22 06:11:56;;;;;;;10.20;2.42;;;;;;;1.93;100.00;96469.91;6098002;19;20032;-71
2023/12/22 06:13:56;;;;;;;6.60;2.70;;;;;;;2.20;100.00;96462.41;6100086;19;20019;-71
2023/12/22 06:15:56;;;;;;;5.60;1.65;;;;;;;2.33;100.00;96467.66;6099923;19;20018;-71
2023/12/22 06:17:57;;;;;;;5.93;1.48;;;;;;;2.53;100.00;96460.84;6099656;19;20049;-71
2023/12/22 06:19:58;;;;;;;7.45;2.05;;;;;;;2.60;100.00;96471.81;6100345;19;20066;-71
2023/12/22 06:21:59;;;;;;;4.75;1.02;;;;;;;2.71;100.00;96478.19;6098919;19;20424;-71
2023/12/22 06:24:00;;;;;;;6.60;1.53;;;;;;;2.80;100.00;96500.50;6099456;19;20015;-71
2023/12/22 06:26:02;;;;;;;2.17;1.05;;;;;;;2.81;100.00;96528.59;6099287;19;20025;-71
2023/12/22 06:28:03;;;;;;;6.38;1.48;;;;;;;2.79;100.00;96520.00;6099434;19;20014;-71
2023/12/22 06:30:05;;;;;;;3.67;1.10;;;;;;;2.57;100.00;96538.09;6100080;19;20017;-71
2023/12/22 06:32:06;;;;;;;4.83;1.70;;;;;;;2.17;100.00;96517.75;6097888;19;20389;-70
2023/12/22 06:34:06;;;;;;;3.97;1.17;;;;;;;1.89;100.00;96534.50;6099294;19;20255;-70
2023/12/22 06:36:07;;;;;;;3.13;1.10;;;;;;;1.71;100.00;96528.00;6097732;19;20066;-70
2023/12/22 06:38:07;;;;;;;2.67;1.13;;;;;;;1.67;100.00;96547.06;6099292;19;20003;-71
2023/12/22 06:40:08;;;;;;;4.35;1.10;;;;;;;1.63;100.00;96548.94;6099562;19;19998;-71
2023/12/22 06:42:11;;;;;;;1.50;1.00;;;;;;;1.57;100.00;96558.59;6097053;19;19999;-71
2023/12/22 06:44:11;;;;;;;2.90;1.50;;;;;;;1.49;100.00;96556.09;6099674;19;20007;-71
2023/12/22 06:46:18;;;;;;;2.67;2.10;;;;;;;1.41;100.00;96574.28;6098354;19;20006;-70
2023/12/22 06:48:19;;;;;;;4.40;1.80;;;;;;;1.37;100.00;96566.03;6099973;19;20058;-70
2023/12/22 06:50:19;;;;;;;4.50;1.40;;;;;;;1.36;100.00;96564.47;6099022;19;20011;-70
2023/12/22 06:52:20;;;;;;;3.35;1.40;;;;;;;1.40;100.00;96562.56;6097065;19;20037;-71
2023/12/22 06:54:20;;;;;;;5.55;1.42;;;;;;;1.42;100.00;96556.78;6100161;19;20003;-71
2023/12/22 06:56:25;;;;;;;3.90;1.45;;;;;;;1.49;100.00;96540.56;6100527;19;20041;-71
2023/12/22 06:58:25;;;;;;;2.95;1.40;;;;;;;1.65;100.00;96571.16;6104902;19;20004;-71
2023/12/22 07:00:26;;;;;;;5.80;1.75;;;;;;;1.73;100.00;96568.53;6104273;19;20505;-71
2023/12/22 07:02:26;;;;;;;3.03;1.20;;;;;;;1.85;100.00;96560.16;6105899;19;20017;-71
2023/12/22 07:05:06;;;;;;;5.43;1.83;;;;;;;2.02;100.00;96569.75;6104559;19;20014;-70
2023/12/22 07:07:06;;;;;;;2.22;1.15;;;;;;;2.13;100.00;96571.47;6104789;19;20014;-70
2023/12/22 07:09:12;;;;;;;3.40;2.00;;;;;;;2.17;100.00;96594.13;6105621;19;20111;-70
2023/12/22 07:11:12;;;;;;;4.93;2.38;;;;;;;2.17;100.00;96612.44;6104116;19;20036;-71
2023/12/22 07:13:13;;;;;;;2.10;1.23;;;;;;;2.10;100.00;96604.16;6105535;19;20350;-71
2023/12/22 07:15:13;;;;;;;4.63;1.35;;;;;;;2.04;100.00;96600.94;6105104;19;20015;-71
2023/12/22 07:17:13;;;;;;;2.90;1.27;;;;;;;1.90;100.00;96601.56;6105497;19;20011;-71
2023/12/22 07:19:14;;;;;;;3.45;1.40;;;;;;;1.85;100.00;96601.84;6105605;19;20007;-71
2023/12/22 07:21:18;;;;;;;3.17;2.03;;;;;;;1.85;100.00;96596.41;6104371;19;20031;-71
2023/12/22 07:23:18;;;;;;;2.22;1.52;;;;;;;1.86;100.00;96613.53;6103955;19;20006;-72
2023/12/22 07:25:19;;;;;;;4.55;1.90;;;;;;;1.92;100.00;96614.81;6104075;19;20013;-72
2023/12/22 07:27:20;;;;;;;4.40;1.58;;;;;;;1.94;100.00;96601.59;6105178;19;20026;-72
2023/12/22 07:29:20;;;;;;;4.80;1.77;;;;;;;2.08;100.00;96599.06;6104490;19;20352;-72
2023/12/22 07:31:20;;;;;;;4.65;2.28;;;;;;;2.19;100.00;96602.72;6105166;19;20015;-72
2023/12/22 07:33:21;;;;;;;2.50;1.60;;;;;;;2.29;100.00;96625.06;6105403;19;20025;-72
2023/12/22 07:35:21;;;;;;;6.72;1.45;;;;;;;2.42;100.00;96638.16;6103170;19;20340;-72
2023/12/22 07:37:21;;;;;;;4.75;1.60;;;;;;;2.56;100.00;96617.63;6104060;19;20514;-72
2023/12/22 07:39:22;;;;;;;5.15;2.55;;;;;;;2.60;100.00;96619.25;6104547;19;20071;-72
2023/12/22 07:41:22;;;;;;;3.65;1.77;;;;;;;2.68;100.00;96620.94;6103114;19;20002;-70
2023/12/22 07:43:23;;;;;;;6.72;1.50;;;;;;;2.72;100.00;96621.75;6104523;19;20003;-70
2023/12/22 07:45:23;;;;;;;3.10;1.50;;;;;;;2.78;100.00;96620.25;6104807;19;20456;-70
2023/12/22 07:47:24;;;;;;;4.82;1.80;;;;;;;2.83;100.00;96629.28;6104093;19;20381;-70
2023/12/22 07:49:24;;;;;;;6.50;1.85;;;;;;;2.86;100.00;96609.44;6103475;19;20418;-70
2023/12/22 07:51:24;;;;;;;8.23;1.50;;;;;;;2.86;100.00;96612.16;6104153;19;20464;-70
2023/12/22 07:53:25;;;;;;;5.57;1.90;;;;;;;2.86;100.00;96610.22;6104159;19;20044;-70
2023/12/22 07:55:25;;;;;;;5.22;1.75;;;;;;;2.91;100.00;96622.75;6104525;19;20027;-70
2023/12/22 07:57:25;;;;;;;5.53;2.17;;;;;;;2.94;100.00;96616.53;6105168;19;20011;-70
2023/12/22 07:59:26;;;;;;;5.95;1.85;;;;;;;2.95;100.00;96596.25;6103388;19;20015;-70
2023/12/22 08:01:26;;;;;;;9.50;2.38;;;;;;;2.94;100.00;96613.81;6103348;19;20226;-70
2023/12/22 08:03:26;;;;;;;7.32;2.83;;;;;;;3.01;100.00;96633.81;6104218;19;20006;-71
2023/12/22 08:05:27;;;;;;;7.60;2.13;;;;;;;3.02;100.00;96624.44;6103656;19;20042;-70
2023/12/22 08:07:27;;;;;;;12.90;3.38;;;;;;;3.07;100.00;96635.06;6103119;19;20041;-70
2023/12/22 08:09:27;;;;;;;8.20;2.83;;;;;;;3.09;100.00;96627.25;6102293;19;20089;-71
2023/12/22 08:11:28;;;;;;;6.22;1.95;;;;;;;3.14;100.00;96623.38;6103039;19;20006;-70
2023/12/22 08:13:28;;;;;;;3.88;2.10;;;;;;;3.23;100.00;96631.31;6102113;19;20003;-70
2023/12/22 08:15:29;;;;;;;5.35;1.25;;;;;;;3.15;100.00;96626.94;6102900;19;20003;-70
2023/12/22 08:17:29;;;;;;;3.47;1.35;;;;;;;3.25;100.00;96643.44;6104394;19;20006;-71
2023/12/22 08:19:29;;;;;;;3.83;1.30;;;;;;;3.32;100.00;96629.84;6103702;19;20003;-70
2023/12/22 08:21:30;;;;;;;5.70;2.00;;;;;;;3.35;100.00;96628.31;6102140;19;20003;-70
2023/12/22 08:23:30;;;;;;;3.22;1.33;;;;;;;3.43;100.00;96656.50;6102608;19;20016;-70
2023/12/22 08:25:31;;;;;;;4.25;1.23;;;;;;;3.41;100.00;96642.44;6102418;19;20007;-70
2023/12/22 08:27:32;;;;;;;6.28;1.40;;;;;;;3.46;100.00;96650.25;6102228;19;20009;-71
2023/12/22 08:29:32;;;;;;;2.22;1.30;;;;;;;3.50;100.00;96649.16;6102753;19;20009;-71
2023/12/22 08:31:33;;;;;;;8.63;2.53;;;;;;;3.51;100.00;96649.94;6101950;19;20010;-71
2023/12/22 08:33:33;;;;;;;4.97;1.73;;;;;;;3.57;100.00;96662.13;6101785;19;20006;-71
2023/12/22 08:35:34;;;;;;;7.85;1.65;;;;;;;3.56;100.00;96676.94;6101627;19;20026;-71
2023/12/22 08:37:35;;;;;;;3.60;1.52;;;;;;;3.54;100.00;96677.31;6103332;19;20017;-71
2023/12/22 08:39:35;;;;;;;3.40;1.38;;;;;;;3.60;100.00;96672.28;6102019;19;20010;-71
2023/12/22 08:41:37;;;;;;;2.42;1.30;;;;;;;3.59;100.00;96670.72;6100882;19;20324;-70
2023/12/22 08:43:38;;;;;;;5.87;1.50;;;;;;;3.56;100.00;96688.69;6102493;19;20017;-71
2023/12/22 08:45:39;;;;;;;3.83;1.15;;;;;;;3.64;100.00;96662.97;6101871;19;20021;-71
2023/12/22 08:47:39;;;;;;;4.18;1.40;;;;;;;3.64;100.00;96689.50;6101329;19;20071;-71
2023/12/22 08:49:39;;;;;;;5.13;1.08;;;;;;;3.72;100.00;96669.25;6089810;19;20529;-70
2023/12/22 08:51:39;;;;;;;2.92;1.10;;;;;;;3.76;100.00;96672.84;6101135;19;20045;-70
2023/12/22 08:53:40;;;;;;;3.65;1.25;;;;;;;3.75;100.00;96695.88;6102044;19;20331;-71
2023/12/22 08:55:40;;;;;;;4.22;1.13;;;;;;;3.79;100.00;96693.16;6101286;19;20010;-71
2023/12/22 08:57:40;;;;;;;3.38;1.10;;;;;;;3.81;100.00;96691.66;6101518;19;20459;-70
2023/12/22 08:59:41;;;;;;;4.00;1.20;;;;;;;3.81;100.00;96704.53;6100095;19;20006;-71
2023/12/22 09:01:42;;;;;;;6.65;1.85;;;;;;;3.84;100.00;96695.56;6099814;19;20021;-70
2023/12/22 09:03:45;;;;;;;1.70;1.20;;;;;;;3.84;100.00;96698.31;6101234;19;20013;-70
2023/12/22 09:05:47;;;;;;;5.43;1.35;;;;;;;3.83;100.00;96689.31;6101610;19;20459;-70
2023/12/22 09:07:47;;;;;;;6.25;1.55;;;;;;;3.80;100.00;96692.00;6098359;19;20029;-71
2023/12/22 09:09:47;;;;;;;3.35;1.50;;;;;;;3.77;100.00;96698.25;6100243;19;20282;-71
2023/12/22 09:11:48;;;;;;;5.65;1.65;;;;;;;3.76;100.00;96700.19;6100658;19;20020;-71
2023/12/22 09:13:48;;;;;;;7.68;1.90;;;;;;;3.83;100.00;96716.66;6101004;19;20010;-71
2023/12/22 09:15:48;;;;;;;3.15;1.50;;;;;;;3.89;100.00;96708.91;6099463;19;19999;-71
2023/12/22 09:17:51;;;;;;;8.05;1.85;;;;;;;3.90;100.00;96719.47;6099849;19;20030;-71
2023/12/22 09:19:51;;;;;;;;;;;;;;;3.90;100.00;96732.38;6099750;19;20339;-71
2023/12/22 09:21:51;;;;;;;7.83;2.13;;;;;;;3.89;100.00;96700.72;6097361;19;19923;-71
2023/12/22 09:23:52;;;;;;;7.00;1.83;;;;;;;3.85;100.00;96700.66;6101161;19;20263;-71
2023/12/22 09:25:53;;;;;;;5.95;2.30;;;;;;;3.89;100.00;96717.91;6099353;19;20040;-71
2023/12/22 09:27:53;;;;;;;8.55;2.10;;;;;;;3.99;100.00;96718.38;6099730;19;20113;-71